Time;durP1;ratioP1;P1;durP2;ratioP2;P2;SDS_P1;SDS_P2;PMS_P1;PMS_P2;Temp;Humidity;BMP_temperature;BMP_pressure;BME280_temperature;BME280_humidity;BME280_pressure;Samples;Min_cycle;Max_cycle;Signal;HPM_P1;HPM_P2
2021/10/25 00:00:06;;;;;;;19.53;13.83;;;9.80;99.90;;;;;;5027509;28;38793;-72
2021/10/25 00:02:32;;;;;;;18.20;12.30;;;9.80;99.90;;;;;;5003966;28;40044;-71
2021/10/25 00:04:58;;;;;;;17.93;12.20;;;9.90;99.90;;;;;;5008821;28;38942;-71
2021/10/25 00:07:24;;;;;;;17.93;12.10;;;9.90;99.90;;;;;;5013265;28;39487;-71
2021/10/25 00:09:50;;;;;;;16.57;11.77;;;9.90;99.90;;;;;;5030747;28;40006;-71
2021/10/25 00:12:16;;;;;;;17.20;11.50;;;9.90;99.90;;;;;;5013186;28;37515;-71
2021/10/25 00:14:42;;;;;;;17.43;12.03;;;10.00;99.90;;;;;;4998261;28;39105;-70
2021/10/25 00:17:09;;;;;;;14.20;10.60;;;10.00;99.90;;;;;;5025828;28;37270;-70
2021/10/25 00:19:35;;;;;;;18.83;10.30;;;10.00;99.90;;;;;;5031915;28;37628;-72
2021/10/25 00:22:02;;;;;;;18.07;10.97;;;10.10;99.90;;;;;;5006167;28;39419;-72
2021/10/25 00:24:28;;;;;;;15.40;11.30;;;10.10;99.90;;;;;;5008439;28;47807;-72
2021/10/25 00:26:54;;;;;;;15.33;11.53;;;10.10;99.90;;;;;;5009380;28;37156;-73
2021/10/25 00:29:21;;;;;;;17.37;11.80;;;10.10;99.90;;;;;;5009454;28;38721;-72
2021/10/25 00:31:47;;;;;;;18.77;11.57;;;10.10;99.90;;;;;;5007988;28;38751;-72
2021/10/25 00:34:14;;;;;;;12.83;10.53;;;10.20;99.90;;;;;;5008240;28;39446;-72
2021/10/25 00:36:40;;;;;;;19.00;11.80;;;10.20;99.90;;;;;;5009091;28;37538;-72
2021/10/25 00:39:07;;;;;;;18.47;11.23;;;10.20;99.90;;;;;;5025862;28;40542;-72
2021/10/25 00:41:33;;;;;;;16.53;10.27;;;10.20;99.90;;;;;;5014033;28;40011;-72
2021/10/25 00:43:59;;;;;;;15.27;10.67;;;10.20;99.90;;;;;;5012894;28;38824;-72
2021/10/25 00:46:25;;;;;;;13.60;10.77;;;10.20;99.90;;;;;;5015220;28;38308;-72
2021/10/25 00:48:51;;;;;;;15.97;10.73;;;10.30;99.90;;;;;;5020850;28;38894;-72
2021/10/25 00:51:17;;;;;;;16.60;11.00;;;10.20;99.90;;;;;;5016022;28;38942;-72
2021/10/25 00:53:43;;;;;;;16.87;11.20;;;10.30;99.90;;;;;;5031544;28;38095;-72
2021/10/25 00:56:10;;;;;;;15.00;10.33;;;10.30;99.90;;;;;;5014596;28;38593;-72
2021/10/25 00:58:37;;;;;;;18.00;11.33;;;10.30;99.90;;;;;;5015672;28;39736;-72
2021/10/25 01:01:04;;;;;;;18.60;10.87;;;10.30;99.90;;;;;;5038007;28;39858;-72
2021/10/25 01:03:30;;;;;;;14.70;10.40;;;10.30;99.90;;;;;;5024903;28;39455;-72
2021/10/25 01:05:56;;;;;;;17.97;10.00;;;10.30;99.90;;;;;;5017136;28;38253;-72
2021/10/25 01:08:24;;;;;;;16.77;10.60;;;10.30;99.90;;;;;;5005911;28;39191;-72
2021/10/25 01:10:51;;;;;;;18.93;10.10;;;10.30;99.90;;;;;;5013236;28;39920;-72
2021/10/25 01:13:17;;;;;;;15.93;10.77;;;10.40;99.90;;;;;;5026043;28;39273;-72
2021/10/25 01:15:43;;;;;;;13.80;9.30;;;10.40;99.90;;;;;;5022189;28;37258;-72
2021/10/25 01:18:09;;;;;;;16.70;11.50;;;10.40;99.90;;;;;;5022998;28;36988;-73
2021/10/25 01:20:35;;;;;;;13.63;9.97;;;10.40;99.90;;;;;;5001463;28;39666;-72
2021/10/25 01:23:01;;;;;;;13.27;9.17;;;10.40;99.90;;;;;;5012173;28;39483;-73
2021/10/25 01:25:29;;;;;;;14.77;9.10;;;10.40;99.90;;;;;;5015826;28;48761;-72
2021/10/25 01:27:56;;;;;;;15.00;9.37;;;10.40;99.90;;;;;;5011862;28;40419;-72
2021/10/25 01:30:22;;;;;;;13.27;9.43;;;10.40;99.90;;;;;;5006754;28;40482;-73
2021/10/25 01:32:49;;;;;;;14.97;9.27;;;10.40;99.90;;;;;;5027689;28;36215;-72
2021/10/25 01:35:15;;;;;;;15.60;9.90;;;10.40;99.90;;;;;;5002866;28;36424;-73
2021/10/25 01:37:42;;;;;;;17.23;10.07;;;10.40;99.90;;;;;;5012411;28;38012;-72
2021/10/25 01:40:09;;;;;;;16.07;9.30;;;10.40;99.90;;;;;;5009824;28;37931;-73
2021/10/25 01:42:36;;;;;;;11.57;9.53;;;10.40;99.90;;;;;;5025681;28;38168;-73
2021/10/25 01:45:04;;;;;;;19.17;9.57;;;10.50;99.90;;;;;;5027202;28;37051;-73
2021/10/25 01:47:30;;;;;;;16.43;9.83;;;10.50;99.90;;;;;;5027364;28;48400;-73
2021/10/25 01:49:56;;;;;;;14.60;9.03;;;10.50;99.90;;;;;;5007544;28;39317;-72
2021/10/25 01:52:23;;;;;;;19.00;9.53;;;10.50;99.90;;;;;;5025940;28;38631;-73
2021/10/25 01:54:50;;;;;;;14.73;9.10;;;10.50;99.90;;;;;;5029732;28;38546;-72
2021/10/25 01:57:16;;;;;;;14.20;8.90;;;10.60;99.90;;;;;;5027202;28;38311;-73
2021/10/25 01:59:42;;;;;;;14.63;9.43;;;10.60;99.90;;;;;;5008917;28;38334;-72
2021/10/25 02:02:08;;;;;;;18.83;10.17;;;10.60;99.90;;;;;;5003701;28;37358;-72
2021/10/25 02:04:34;;;;;;;15.20;9.43;;;10.60;99.90;;;;;;5023240;28;38512;-72
2021/10/25 02:07:01;;;;;;;18.83;9.23;;;10.60;99.90;;;;;;5018111;28;39816;-72
2021/10/25 02:09:27;;;;;;;13.73;8.57;;;10.70;99.90;;;;;;5007965;28;37385;-72
2021/10/25 02:11:53;;;;;;;14.93;8.77;;;10.70;99.90;;;;;;5013715;28;39495;-72
2021/10/25 02:14:19;;;;;;;14.57;8.30;;;10.70;99.90;;;;;;5006655;28;37661;-72
2021/10/25 02:16:46;;;;;;;16.70;9.70;;;10.70;99.90;;;;;;5010417;28;38058;-72
2021/10/25 02:19:13;;;;;;;16.00;9.33;;;10.70;99.90;;;;;;5011936;28;39839;-72
2021/10/25 02:21:40;;;;;;;9.97;7.73;;;10.80;99.90;;;;;;5029579;28;37974;-72
2021/10/25 02:24:06;;;;;;;16.80;9.23;;;10.80;99.90;;;;;;5028792;28;37057;-73
2021/10/25 02:26:32;;;;;;;13.03;8.93;;;10.80;99.90;;;;;;5011993;28;40203;-72
2021/10/25 02:28:59;;;;;;;13.90;9.68;;;10.80;99.90;;;;;;5027698;28;39049;-73
2021/10/25 02:31:26;;;;;;;16.73;9.53;;;10.80;99.90;;;;;;5012623;28;36541;-73
2021/10/25 02:33:52;;;;;;;11.87;9.37;;;10.80;99.90;;;;;;5013886;28;37620;-73
2021/10/25 02:36:18;;;;;;;12.00;9.03;;;10.90;99.90;;;;;;5026581;28;37961;-72
2021/10/25 02:38:44;;;;;;;10.73;8.33;;;10.90;99.90;;;;;;5014902;28;37814;-72
2021/10/25 02:41:11;;;;;;;11.97;8.57;;;10.90;99.90;;;;;;5013885;28;38831;-72
2021/10/25 02:43:38;;;;;;;14.97;9.70;;;11.00;99.90;;;;;;5013951;28;37123;-72
2021/10/25 02:46:04;;;;;;;13.10;8.50;;;11.00;99.90;;;;;;5023109;28;38660;-72
2021/10/25 02:48:30;;;;;;;15.10;8.47;;;10.90;99.90;;;;;;4994026;28;39521;-72
2021/10/25 02:50:57;;;;;;;15.13;8.90;;;11.00;99.90;;;;;;5022535;28;38956;-72
2021/10/25 02:53:24;;;;;;;14.23;9.00;;;11.00;99.90;;;;;;5010645;28;37379;-71
2021/10/25 02:55:50;;;;;;;16.43;9.97;;;10.90;99.90;;;;;;5029648;28;39849;-72
2021/10/25 02:58:17;;;;;;;12.93;9.27;;;10.90;99.90;;;;;;5003025;28;41225;-72
2021/10/25 03:00:43;;;;;;;17.33;10.17;;;11.00;99.90;;;;;;5032828;28;38279;-72
2021/10/25 03:03:09;;;;;;;13.57;9.33;;;11.00;99.90;;;;;;5012700;28;37129;-73
2021/10/25 03:05:36;;;;;;;15.90;9.50;;;11.00;99.90;;;;;;4999911;28;39580;-73
2021/10/25 03:08:02;;;;;;;15.67;9.40;;;11.00;99.90;;;;;;4992280;28;39019;-73
2021/10/25 03:10:29;;;;;;;12.57;8.93;;;11.00;99.90;;;;;;4978442;28;38713;-73
2021/10/25 03:12:55;;;;;;;14.43;9.00;;;11.00;99.90;;;;;;4989305;28;36804;-74
2021/10/25 03:15:21;;;;;;;13.57;9.10;;;11.00;99.90;;;;;;4990948;28;40081;-74
2021/10/25 03:17:48;;;;;;;11.53;9.27;;;11.00;99.90;;;;;;4993199;28;40822;-74
2021/10/25 03:20:14;;;;;;;15.33;9.63;;;11.00;99.90;;;;;;4991474;28;38754;-74
2021/10/25 03:22:41;;;;;;;18.03;9.90;;;11.00;99.90;;;;;;4991949;28;37287;-71
2021/10/25 03:25:09;;;;;;;14.37;9.80;;;11.00;99.90;;;;;;4991213;28;39910;-73
2021/10/25 03:27:35;;;;;;;14.23;8.87;;;11.00;99.90;;;;;;4989629;28;39013;-73
2021/10/25 03:30:02;;;;;;;16.13;9.30;;;11.10;99.90;;;;;;4991454;28;38472;-73
2021/10/25 03:32:29;;;;;;;15.37;9.53;;;11.10;99.90;;;;;;4989124;28;39186;-74
2021/10/25 03:34:55;;;;;;;11.93;9.10;;;11.00;99.90;;;;;;4991380;28;39544;-74
2021/10/25 03:37:21;;;;;;;14.93;10.10;;;11.10;99.90;;;;;;4987758;28;39160;-74
2021/10/25 03:39:50;;;;;;;15.43;9.97;;;11.00;99.90;;;;;;4985336;28;37873;-73
2021/10/25 03:42:29;;;;;;;19.20;10.33;;;11.00;99.90;;;;;;4988861;28;38099;-74
2021/10/25 03:47:32;;;;;;;14.77;11.38;;;10.90;99.90;;;;;;4986340;28;49177;-73
2021/10/25 03:50:17;;;;;;;17.20;11.77;;;10.90;99.90;;;;;;4991127;28;36934;-74
2021/10/25 04:27:45;;;;;;;32.37;23.77;;;10.80;99.90;;;;;;5013913;28;48523;-73
2021/10/25 04:30:12;;;;;;;39.27;26.60;;;10.80;99.90;;;;;;5003015;28;38168;-73
2021/10/25 04:32:39;;;;;;;38.63;26.37;;;10.80;99.90;;;;;;5027004;28;37626;-73
2021/10/25 04:35:06;;;;;;;43.47;28.27;;;10.80;99.90;;;;;;5006955;28;36604;-74
2021/10/25 04:37:32;;;;;;;40.38;28.65;;;10.80;99.90;;;;;;5022982;28;39962;-73
2021/10/25 04:39:58;;;;;;;43.23;28.90;;;10.90;99.90;;;;;;5030128;28;38417;-74
2021/10/25 04:42:24;;;;;;;42.23;26.87;;;10.90;99.90;;;;;;5027496;28;38644;-73
2021/10/25 04:44:52;;;;;;;41.30;27.17;;;10.90;99.90;;;;;;5026827;28;38170;-73
2021/10/25 04:47:18;;;;;;;37.63;25.10;;;10.90;99.90;;;;;;4995816;28;38732;-74
2021/10/25 04:49:44;;;;;;;45.63;27.37;;;10.90;99.90;;;;;;5033548;28;39020;-73
2021/10/25 04:52:10;;;;;;;37.43;27.53;;;10.90;99.90;;;;;;5009226;28;38170;-73
2021/10/25 04:54:38;;;;;;;36.50;26.00;;;10.90;99.90;;;;;;5008770;28;35709;-74
2021/10/25 04:57:04;;;;;;;37.97;24.33;;;10.90;99.90;;;;;;5006063;28;37015;-73
2021/10/25 04:59:31;;;;;;;44.83;24.00;;;10.90;99.90;;;;;;5008205;28;38980;-73
2021/10/25 05:01:57;;;;;;;35.17;22.57;;;10.80;99.90;;;;;;5005307;28;37873;-73
2021/10/25 05:04:23;;;;;;;29.90;20.60;;;10.80;99.90;;;;;;5000557;28;36216;-73
2021/10/25 05:06:49;;;;;;;26.80;19.10;;;10.70;99.90;;;;;;5027797;28;38059;-73
2021/10/25 05:09:16;;;;;;;27.50;18.90;;;10.70;99.90;;;;;;5010339;28;38214;-74
2021/10/25 05:11:42;;;;;;;28.93;20.00;;;10.70;99.90;;;;;;5013884;28;37528;-73
2021/10/25 05:14:08;;;;;;;29.93;19.93;;;10.70;99.90;;;;;;5003860;28;36204;-73
2021/10/25 05:16:34;;;;;;;27.03;19.40;;;10.70;99.90;;;;;;5017999;28;38867;-73
2021/10/25 05:19:00;;;;;;;28.03;20.50;;;10.70;99.90;;;;;;5005757;28;37743;-74
2021/10/25 05:21:27;;;;;;;26.17;19.10;;;10.70;99.90;;;;;;5005935;28;37013;-74
2021/10/25 05:23:53;;;;;;;32.43;19.47;;;10.60;99.90;;;;;;5005123;28;36595;-74
2021/10/25 05:26:20;;;;;;;35.27;19.90;;;10.60;99.90;;;;;;5003634;28;38406;-74
2021/10/25 05:28:46;;;;;;;31.47;21.03;;;10.60;99.90;;;;;;4999951;28;40202;-74
2021/10/25 05:31:13;;;;;;;34.07;20.27;;;10.60;99.90;;;;;;5012535;28;37945;-73
2021/10/25 05:33:40;;;;;;;35.40;21.80;;;10.60;99.90;;;;;;5018130;28;36343;-74
2021/10/25 05:36:08;;;;;;;29.40;20.07;;;10.60;99.90;;;;;;5035304;28;38683;-73
2021/10/25 05:38:35;;;;;;;29.93;19.10;;;10.60;99.90;;;;;;5019317;28;38621;-73
2021/10/25 05:41:02;;;;;;;28.40;20.93;;;10.70;99.90;;;;;;5005435;28;37724;-74
2021/10/25 05:43:29;;;;;;;36.90;21.97;;;10.70;99.90;;;;;;5013859;28;36738;-74
2021/10/25 05:45:55;;;;;;;30.87;21.80;;;10.70;99.90;;;;;;5006775;28;37803;-72
2021/10/25 05:48:21;;;;;;;27.63;20.23;;;10.70;99.90;;;;;;5013507;28;39213;-74
2021/10/25 05:50:47;;;;;;;26.70;19.80;;;10.70;99.90;;;;;;5011675;28;37771;-72
2021/10/25 05:53:15;;;;;;;28.47;20.87;;;10.70;99.90;;;;;;5011239;28;36534;-72
2021/10/25 05:55:42;;;;;;;31.93;22.23;;;10.70;99.90;;;;;;5014990;28;40083;-73
2021/10/25 05:58:16;;;;;;;31.87;22.00;;;10.70;99.90;;;;;;5039892;28;39403;-73
2021/10/25 06:00:47;;;;;;;29.03;21.70;;;10.70;99.90;;;;;;5033352;28;38381;-71
2021/10/25 06:03:20;;;;;;;34.63;23.87;;;10.70;99.90;;;;;;5032925;28;37456;-72
2021/10/25 06:05:46;;;;;;;;;;;10.70;99.90;;;;;;5014125;28;43171;-71
2021/10/25 06:08:14;;;;;;;28.17;20.20;;;10.70;99.90;;;;;;5009068;28;37649;-71
2021/10/25 06:10:41;;;;;;;28.83;21.17;;;10.70;99.90;;;;;;5012828;28;38505;-72
2021/10/25 06:13:11;;;;;;;31.03;23.23;;;10.70;99.90;;;;;;5001202;28;38154;-70
2021/10/25 06:15:41;;;;;;;43.07;29.03;;;10.70;99.90;;;;;;5011573;28;39533;-71
2021/10/25 06:18:09;;;;;;;34.03;23.77;;;10.70;99.90;;;;;;5012248;28;37972;-72
2021/10/25 06:20:40;;;;;;;33.77;24.60;;;10.80;99.90;;;;;;5015894;28;37508;-72
2021/10/25 06:23:12;;;;;;;39.43;27.77;;;10.80;99.90;;;;;;5009814;28;36481;-72
2021/10/25 06:25:39;;;;;;;38.13;27.08;;;10.80;99.90;;;;;;5010771;28;38546;-72
2021/10/25 06:28:07;;;;;;;39.80;26.83;;;10.80;99.90;;;;;;5010850;28;37819;-72
2021/10/25 06:30:33;;;;;;;34.07;25.70;;;10.90;99.90;;;;;;5017403;28;37679;-72
2021/10/25 06:33:03;;;;;;;32.00;25.07;;;10.90;99.90;;;;;;5018520;28;34907;-72
2021/10/25 06:35:31;;;;;;;40.40;28.43;;;10.90;99.90;;;;;;5015275;28;46946;-72
2021/10/25 06:38:10;;;;;;;30.17;24.60;;;10.90;99.90;;;;;;5018588;28;38190;-72
2021/10/25 06:40:37;;;;;;;34.17;25.43;;;10.90;99.90;;;;;;5017317;28;49970;-74
2021/10/25 06:43:04;;;;;;;36.97;26.37;;;10.90;99.90;;;;;;5019516;28;37629;-73
2021/10/25 06:45:30;;;;;;;39.43;28.40;;;10.90;99.90;;;;;;5011623;28;38628;-73
2021/10/25 06:47:56;;;;;;;34.07;27.77;;;11.00;99.90;;;;;;5011962;28;38680;-72
2021/10/25 06:50:25;;;;;;;40.00;29.93;;;11.00;99.90;;;;;;5018150;28;38586;-72
2021/10/25 06:53:01;;;;;;;44.83;31.27;;;11.00;99.90;;;;;;5017047;28;36240;-73
2021/10/25 06:55:27;;;;;;;41.03;31.70;;;11.00;99.90;;;;;;5022041;28;47265;-72
2021/10/25 06:57:54;;;;;;;33.00;27.90;;;11.00;99.90;;;;;;5013295;28;38237;-72
2021/10/25 07:00:20;;;;;;;38.93;29.70;;;11.10;99.90;;;;;;5010013;28;38622;-72
2021/10/25 07:02:47;;;;;;;34.00;26.37;;;11.10;99.90;;;;;;5004889;28;36936;-72
2021/10/25 07:05:14;;;;;;;38.50;29.88;;;11.10;99.90;;;;;;5013210;28;38823;-72
2021/10/25 07:07:40;;;;;;;39.87;29.10;;;11.10;99.90;;;;;;5012150;28;38560;-72
2021/10/25 07:10:08;;;;;;;37.87;28.47;;;11.10;99.90;;;;;;5016494;28;39226;-72
2021/10/25 07:12:34;;;;;;;40.00;29.43;;;11.10;99.90;;;;;;5014124;28;37563;-72
2021/10/25 07:15:01;;;;;;;38.13;30.40;;;11.10;99.90;;;;;;5021334;28;39852;-72
2021/10/25 07:23:07;;;;;;;52.53;35.83;;;11.10;99.90;;;;;;5010604;28;49080;-71
2021/10/25 08:06:25;;;;;;;33.43;27.03;;;11.10;99.90;;;;;;5016779;28;37649;-72
2021/10/25 08:09:06;;;;;;;34.90;26.90;;;11.10;99.90;;;;;;5012563;28;39536;-72
2021/10/25 08:14:13;;;;;;;31.87;25.67;;;11.20;99.90;;;;;;5022322;28;38968;-72
2021/10/25 08:16:51;;;;;;;32.67;25.57;;;11.20;99.90;;;;;;5012220;28;38329;-72
2021/10/25 08:19:25;;;;;;;36.40;27.50;;;11.20;99.90;;;;;;5012230;28;38028;-72
2021/10/25 08:21:53;;;;;;;30.77;25.92;;;11.30;99.90;;;;;;5005462;28;37785;-73
2021/10/25 08:24:19;;;;;;;33.43;26.10;;;11.40;99.90;;;;;;5020998;28;37350;-73
2021/10/25 08:26:46;;;;;;;34.47;26.77;;;11.40;99.90;;;;;;5020255;28;36436;-72
2021/10/25 08:29:16;;;;;;;34.33;26.60;;;11.50;99.90;;;;;;5013884;28;37721;-72
2021/10/25 08:31:46;;;;;;;34.38;25.15;;;11.60;99.90;;;;;;5022433;28;38752;-72
2021/10/25 08:42:23;;;;;;;31.90;24.67;;;11.70;99.90;;;;;;5018857;28;40347;-71
2021/10/25 08:44:56;;;;;;;34.53;27.20;;;11.70;99.90;;;;;;5025233;28;38902;-71
2021/10/25 08:47:27;;;;;;;30.20;25.77;;;11.70;99.90;;;;;;5011503;28;37117;-71
2021/10/25 08:49:55;;;;;;;38.78;30.02;;;11.80;99.90;;;;;;5019742;28;39100;-71
2021/10/25 08:52:24;;;;;;;38.63;29.20;;;11.70;99.90;;;;;;5018656;28;38688;-71
2021/10/25 08:54:52;;;;;;;37.55;28.60;;;11.70;99.90;;;;;;5011927;28;37613;-71
2021/10/25 08:57:20;;;;;;;45.42;32.05;;;11.70;99.90;;;;;;5000432;28;36049;-71
2021/10/25 09:00:14;;;;;;;38.03;30.10;;;11.80;99.90;;;;;;5016806;28;38716;-72
2021/10/25 09:02:42;;;;;;;46.72;33.53;;;11.80;99.90;;;;;;5000231;28;47072;-72
2021/10/25 09:05:12;;;;;;;54.08;37.25;;;11.70;99.90;;;;;;5011911;28;38337;-72
2021/10/25 09:07:58;;;;;;;42.15;31.63;;;11.80;99.90;;;;;;5009612;28;38958;-72
2021/10/25 09:10:34;;;;;;;43.30;32.67;;;11.80;99.90;;;;;;5012080;28;40142;-71
2021/10/25 09:13:06;;;;;;;48.13;34.35;;;11.80;99.90;;;;;;5023475;28;38921;-72
2021/10/25 09:15:39;;;;;;;55.05;38.45;;;11.90;99.90;;;;;;5020112;28;48700;-72
2021/10/25 09:18:26;;;;;;;40.53;31.65;;;12.10;99.90;;;;;;5017156;28;37931;-72
2021/10/25 09:21:00;;;;;;;39.10;31.42;;;12.10;99.90;;;;;;5017699;28;38990;-72
2021/10/25 09:23:31;;;;;;;48.63;34.45;;;12.10;99.90;;;;;;5023040;28;47354;-72
2021/10/25 09:26:08;;;;;;;47.72;33.65;;;12.20;99.90;;;;;;5013862;28;38512;-72
2021/10/25 09:28:41;;;;;;;44.00;32.53;;;12.20;99.90;;;;;;5021598;28;48293;-72
2021/10/25 09:31:17;;;;;;;46.05;32.65;;;12.20;99.90;;;;;;5009934;28;37665;-72
2021/10/25 09:34:15;;;;;;;45.75;33.25;;;12.30;99.90;;;;;;5012831;28;39707;-72
2021/10/25 09:36:48;;;;;;;56.88;36.55;;;12.20;99.90;;;;;;5013031;28;47481;-72
2021/10/25 09:42:15;;;;;;;45.08;33.45;;;12.30;99.90;;;;;;5009796;28;39795;-72
2021/10/25 09:50:21;;;;;;;44.10;32.25;;;12.30;99.90;;;;;;5013468;28;38136;-72
2021/10/25 09:52:47;;;;;;;45.03;33.10;;;12.30;99.90;;;;;;5014434;28;38762;-72
2021/10/25 09:55:19;;;;;;;50.60;33.42;;;12.30;99.90;;;;;;5012688;28;39297;-73
2021/10/25 10:00:17;;;;;;;44.55;32.47;;;12.40;99.90;;;;;;5023293;28;37502;-72
2021/10/25 10:02:45;;;;;;;47.00;32.72;;;12.30;99.90;;;;;;5024838;28;37749;-73
2021/10/25 10:05:13;;;;;;;43.80;31.90;;;12.30;99.90;;;;;;5007188;28;37800;-72
2021/10/25 10:07:44;;;;;;;47.33;34.53;;;12.40;99.90;;;;;;5018765;28;37550;-72
2021/10/25 10:10:14;;;;;;;45.63;31.80;;;12.40;99.90;;;;;;5022788;28;37030;-72
2021/10/25 10:12:42;;;;;;;45.38;34.05;;;12.40;99.90;;;;;;5014794;28;37418;-72
2021/10/25 10:15:11;;;;;;;57.00;36.28;;;12.30;99.90;;;;;;5016279;28;38910;-72
2021/10/25 10:17:46;;;;;;;51.47;34.67;;;12.30;99.90;;;;;;5018210;28;38755;-72
2021/10/25 10:20:18;;;;;;;46.90;32.47;;;12.30;99.90;;;;;;5014611;28;36752;-72
2021/10/25 10:22:52;;;;;;;44.00;31.17;;;12.40;99.90;;;;;;5020502;28;38862;-72
2021/10/25 10:25:47;;;;;;;55.05;34.17;;;12.60;99.90;;;;;;5021510;28;40265;-72
2021/10/25 10:28:15;;;;;;;46.40;31.63;;;12.80;99.90;;;;;;5011065;28;37551;-72
2021/10/25 10:30:53;;;;;;;40.80;32.05;;;12.80;99.90;;;;;;5013004;28;40637;-72
2021/10/25 10:33:35;;;;;;;52.95;33.58;;;12.80;99.90;;;;;;5019410;28;37767;-73
2021/10/25 10:36:24;;;;;;;43.63;33.13;;;12.90;99.90;;;;;;5021839;28;39213;-72
2021/10/25 10:39:08;;;;;;;43.17;31.77;;;12.90;99.90;;;;;;5017398;28;47174;-73
2021/10/25 10:41:36;;;;;;;45.88;31.27;;;13.00;99.90;;;;;;5014924;28;47334;-72
2021/10/25 10:44:06;;;;;;;43.83;34.47;;;13.00;99.90;;;;;;5019344;28;39886;-73
2021/10/25 10:46:42;;;;;;;49.10;34.28;;;13.00;99.90;;;;;;5016542;28;37837;-73
2021/10/25 10:49:25;;;;;;;38.75;31.92;;;13.00;99.90;;;;;;5009523;28;37523;-72
2021/10/25 10:52:05;;;;;;;35.75;30.88;;;13.00;99.90;;;;;;5019026;28;37504;-72
2021/10/25 10:57:59;;;;;;;33.80;24.00;;;13.10;99.90;;;;;;5024050;28;39635;-72
2021/10/25 11:00:21;;;;;;;23.90;18.38;;;13.20;99.90;;;;;;5023323;28;37947;-73
2021/10/25 11:02:54;;;;;;;27.63;19.90;;;13.20;99.90;;;;;;5026101;28;37574;-72
2021/10/25 11:06:08;;;;;;;30.27;23.60;;;13.30;99.90;;;;;;5018122;28;39866;-72
2021/10/25 11:08:39;;;;;;;34.75;25.70;;;13.20;99.90;;;;;;4971852;28;47099;-73
2021/10/25 11:11:07;;;;;;;28.10;24.48;;;13.20;99.90;;;;;;5012941;28;39509;-73
2021/10/25 11:13:39;;;;;;;34.00;24.58;;;13.20;99.90;;;;;;5027384;28;38478;-72
2021/10/25 11:16:08;;;;;;;;;;;13.20;99.90;;;;;;5013768;28;39188;-73
2021/10/25 11:18:41;;;;;;;29.10;22.38;;;13.40;99.90;;;;;;5018615;28;39782;-72
2021/10/25 11:21:28;;;;;;;29.17;21.75;;;13.30;99.90;;;;;;5025156;28;37081;-72
2021/10/25 11:23:59;;;;;;;25.10;19.58;;;13.20;99.90;;;;;;5008338;28;37247;-73
2021/10/25 11:26:31;;;;;;;22.30;16.45;;;13.30;99.90;;;;;;5011815;28;40319;-72
2021/10/25 11:29:11;;;;;;;22.23;16.77;;;13.50;99.90;;;;;;5026955;28;39729;-72
2021/10/25 11:31:43;;;;;;;23.48;16.65;;;13.40;99.90;;;;;;5014836;28;48633;-72
2021/10/25 11:34:13;;;;;;;21.48;15.75;;;13.40;99.90;;;;;;5006631;28;38667;-73
2021/10/25 11:37:06;;;;;;;28.13;17.67;;;13.40;99.90;;;;;;5020898;28;40174;-72
2021/10/25 11:39:43;;;;;;;20.17;15.93;;;13.50;99.90;;;;;;5012923;28;47908;-72
2021/10/25 11:42:12;;;;;;;19.27;15.63;;;13.50;99.90;;;;;;5012571;28;38974;-72
2021/10/25 11:44:44;;;;;;;20.55;15.95;;;13.50;99.90;;;;;;5024769;28;37623;-72
2021/10/25 11:47:24;;;;;;;26.15;19.58;;;13.50;99.90;;;;;;5019511;28;39151;-72
2021/10/25 11:50:03;;;;;;;19.40;16.17;;;13.50;99.90;;;;;;5010517;28;39377;-72
2021/10/25 11:52:39;;;;;;;19.75;16.90;;;13.40;99.90;;;;;;5011311;28;47402;-72
2021/10/25 11:55:10;;;;;;;20.65;16.83;;;13.30;99.90;;;;;;5005049;28;37228;-72
2021/10/25 11:57:37;;;;;;;25.48;16.95;;;13.30;99.90;;;;;;5014882;28;39256;-72
2021/10/25 12:00:05;;;;;;;24.38;18.90;;;13.30;99.90;;;;;;5018400;28;37671;-72
2021/10/25 12:02:33;;;;;;;26.55;19.42;;;13.30;99.90;;;;;;5024249;28;38683;-72
2021/10/25 12:04:59;;;;;;;30.42;22.95;;;13.40;99.90;;;;;;5025397;28;37859;-71
2021/10/25 12:07:25;;;;;;;31.10;24.13;;;13.30;99.90;;;;;;5023158;28;39152;-72
2021/10/25 12:10:04;;;;;;;27.95;23.10;;;13.40;99.90;;;;;;5012309;28;20120;-72
2021/10/25 12:12:31;;;;;;;32.70;24.15;;;13.40;99.90;;;;;;5022548;28;48465;-72
2021/10/25 12:15:01;;;;;;;28.70;23.55;;;13.40;99.90;;;;;;5022069;28;37775;-72
2021/10/25 12:17:33;;;;;;;39.88;24.70;;;13.50;99.90;;;;;;5016381;28;48755;-72
2021/10/25 12:20:07;;;;;;;31.52;26.60;;;13.50;99.90;;;;;;5007572;28;37695;-72
2021/10/25 12:22:34;;;;;;;36.63;30.33;;;13.40;99.90;;;;;;5015697;28;47267;-72
2021/10/25 12:25:00;;;;;;;45.58;32.22;;;13.50;99.90;;;;;;5015021;28;38784;-72
2021/10/25 12:27:36;;;;;;;40.72;31.58;;;13.50;99.90;;;;;;5017433;28;40105;-72
2021/10/25 12:30:10;;;;;;;43.13;33.13;;;13.50;99.90;;;;;;5014676;28;39354;-72
2021/10/25 12:33:07;;;;;;;38.85;32.42;;;13.50;99.90;;;;;;5008764;28;48254;-73
2021/10/25 12:35:35;;;;;;;41.05;31.80;;;13.60;99.90;;;;;;5012664;28;48931;-72
2021/10/25 12:38:03;;;;;;;45.50;36.85;;;13.70;99.90;;;;;;5014529;28;38692;-73
2021/10/25 12:40:37;;;;;;;42.10;35.97;;;13.70;99.90;;;;;;5020876;28;38327;-71
2021/10/25 12:43:04;;;;;;;49.50;39.13;;;13.70;99.90;;;;;;5016087;28;39747;-71
2021/10/25 12:45:38;;;;;;;56.88;40.80;;;13.70;99.90;;;;;;4999267;28;39303;-72
2021/10/25 12:48:04;;;;;;;48.00;40.20;;;13.60;99.90;;;;;;5008938;28;39243;-72
2021/10/25 12:50:33;;;;;;;50.55;38.45;;;13.60;99.90;;;;;;5008175;28;37912;-71
2021/10/25 12:53:05;;;;;;;48.35;38.50;;;13.50;99.90;;;;;;5001336;28;38506;-72
2021/10/25 12:55:31;;;;;;;48.00;38.05;;;13.50;99.90;;;;;;5001562;28;47609;-72
2021/10/25 12:57:57;;;;;;;44.20;34.85;;;13.50;99.90;;;;;;5011485;28;38876;-72
2021/10/25 13:00:24;;;;;;;43.50;33.00;;;13.50;99.90;;;;;;5010441;28;39128;-73
2021/10/25 13:02:52;;;;;;;42.03;32.75;;;13.50;99.90;;;;;;5023067;28;39347;-73
2021/10/25 13:05:31;;;;;;;42.22;31.20;;;13.60;99.90;;;;;;5012009;28;37473;-72
2021/10/25 13:07:59;;;;;;;38.60;31.52;;;13.60;99.90;;;;;;5016248;28;39327;-72
2021/10/25 13:10:31;;;;;;;41.65;30.63;;;13.60;99.90;;;;;;5023725;28;38859;-72
2021/10/25 13:13:01;;;;;;;33.58;26.73;;;13.60;99.90;;;;;;5025910;28;38345;-72
2021/10/25 13:15:28;;;;;;;36.47;27.42;;;13.60;99.90;;;;;;5006844;28;47184;-73
2021/10/25 13:17:56;;;;;;;37.53;26.95;;;13.60;99.90;;;;;;5011953;28;39491;-72
2021/10/25 13:20:23;;;;;;;37.60;29.05;;;13.60;99.90;;;;;;5010803;28;38297;-73
2021/10/25 13:22:51;;;;;;;37.20;29.00;;;13.60;99.90;;;;;;5016185;28;39215;-72
2021/10/25 13:25:18;;;;;;;35.42;25.92;;;13.50;99.90;;;;;;5010252;28;37853;-72
2021/10/25 13:27:45;;;;;;;29.88;18.98;;;13.50;99.90;;;;;;5021708;28;39302;-72
2021/10/25 13:30:13;;;;;;;25.63;19.55;;;13.50;99.90;;;;;;5010460;28;39211;-72
2021/10/25 13:32:39;;;;;;;21.80;17.95;;;13.50;99.90;;;;;;5021314;28;39635;-73
2021/10/25 13:35:06;;;;;;;23.83;17.17;;;13.50;99.90;;;;;;5020512;28;38103;-73
2021/10/25 13:37:33;;;;;;;25.13;16.40;;;13.60;99.90;;;;;;5019137;28;38990;-72
2021/10/25 13:39:59;;;;;;;20.15;15.23;;;13.70;99.90;;;;;;5021749;28;39547;-73
2021/10/25 13:42:25;;;;;;;21.60;17.10;;;13.80;99.90;;;;;;5017298;28;39264;-72
2021/10/25 13:44:51;;;;;;;20.52;17.00;;;13.70;99.90;;;;;;5023688;28;37456;-70
2021/10/25 13:47:18;;;;;;;25.60;17.85;;;13.70;99.90;;;;;;5010811;28;39821;-72
2021/10/25 13:49:45;;;;;;;19.33;16.20;;;13.70;99.90;;;;;;5004094;28;39350;-73
2021/10/25 13:52:12;;;;;;;23.88;19.33;;;13.70;99.90;;;;;;5004688;28;38558;-73
2021/10/25 13:54:38;;;;;;;31.95;23.35;;;13.60;99.90;;;;;;5006014;28;37982;-73
2021/10/25 13:57:08;;;;;;;29.85;22.83;;;13.70;99.90;;;;;;5020361;28;39172;-73
2021/10/25 13:59:36;;;;;;;30.50;23.67;;;13.70;99.90;;;;;;5012891;28;38729;-73
2021/10/25 14:02:06;;;;;;;26.10;21.55;;;13.80;99.90;;;;;;5021608;28;39992;-72
2021/10/25 14:04:37;;;;;;;26.02;19.85;;;13.80;99.90;;;;;;5010622;28;47508;-71
2021/10/25 14:07:05;;;;;;;24.00;18.30;;;13.90;99.90;;;;;;5011513;28;40397;-72
2021/10/25 14:09:31;;;;;;;18.70;15.15;;;14.00;99.90;;;;;;5009264;28;39160;-71
2021/10/25 14:11:59;;;;;;;16.55;14.35;;;13.90;99.90;;;;;;5013215;28;38564;-71
2021/10/25 14:14:28;;;;;;;20.98;13.95;;;14.00;99.90;;;;;;5018396;28;38360;-71
2021/10/25 14:16:55;;;;;;;17.55;13.43;;;14.10;99.90;;;;;;5011447;28;39147;-71
2021/10/25 14:19:24;;;;;;;18.13;12.95;;;14.10;99.90;;;;;;5010537;28;40252;-71
2021/10/25 14:21:51;;;;;;;17.45;11.90;;;14.10;99.90;;;;;;5014477;28;36949;-71
2021/10/25 14:24:19;;;;;;;15.32;12.52;;;14.30;99.90;;;;;;5020252;28;36636;-72
2021/10/25 14:26:46;;;;;;;18.50;12.20;;;14.20;99.90;;;;;;5013790;28;37523;-72
2021/10/25 14:29:12;;;;;;;15.23;11.93;;;14.30;99.90;;;;;;5011801;28;39346;-71